sensor_id;sensor_type;location;lat;lon;timestamp;P1;durP1;ratioP1;P2;durP2;ratioP2
70026;SDS011;57506;50.092;15.804;2022-07-03T00:02:06;8.50;;;5.95;;
70026;SDS011;57506;50.092;15.804;2022-07-03T00:04:32;8.27;;;4.87;;
70026;SDS011;57506;50.092;15.804;2022-07-03T00:06:57;10.27;;;5.90;;
70026;SDS011;57506;50.092;15.804;2022-07-03T00:09:23;11.20;;;5.53;;
70026;SDS011;57506;50.092;15.804;2022-07-03T00:11:48;12.13;;;6.80;;
70026;SDS011;57506;50.092;15.804;2022-07-03T00:14:14;12.02;;;7.55;;
70026;SDS011;57506;50.092;15.804;2022-07-03T00:16:40;10.70;;;6.97;;
70026;SDS011;57506;50.092;15.804;2022-07-03T00:19:05;13.60;;;8.18;;
70026;SDS011;57506;50.092;15.804;2022-07-03T00:21:37;13.20;;;8.73;;
70026;SDS011;57506;50.092;15.804;2022-07-03T00:24:13;14.43;;;9.68;;
70026;SDS011;57506;50.092;15.804;2022-07-03T00:26:44;13.82;;;9.38;;
70026;SDS011;57506;50.092;15.804;2022-07-03T00:29:14;11.55;;;7.97;;
70026;SDS011;57506;50.092;15.804;2022-07-03T00:31:40;10.63;;;6.82;;
70026;SDS011;57506;50.092;15.804;2022-07-03T00:34:07;10.30;;;7.23;;
70026;SDS011;57506;50.092;15.804;2022-07-03T00:36:37;10.82;;;7.93;;
70026;SDS011;57506;50.092;15.804;2022-07-03T00:39:03;12.77;;;8.32;;
70026;SDS011;57506;50.092;15.804;2022-07-03T00:41:31;11.68;;;7.65;;
70026;SDS011;57506;50.092;15.804;2022-07-03T00:43:58;9.55;;;6.60;;
70026;SDS011;57506;50.092;15.804;2022-07-03T00:46:25;12.23;;;6.50;;
70026;SDS011;57506;50.092;15.804;2022-07-03T00:48:52;8.75;;;6.00;;
70026;SDS011;57506;50.092;15.804;2022-07-03T00:51:20;9.68;;;5.72;;
70026;SDS011;57506;50.092;15.804;2022-07-03T00:53:51;10.70;;;6.18;;
70026;SDS011;57506;50.092;15.804;2022-07-03T00:56:37;13.68;;;8.45;;
70026;SDS011;57506;50.092;15.804;2022-07-03T00:59:04;13.00;;;7.70;;
70026;SDS011;57506;50.092;15.804;2022-07-03T01:01:35;11.07;;;6.05;;
70026;SDS011;57506;50.092;15.804;2022-07-03T01:09:50;11.80;;;6.30;;
70026;SDS011;57506;50.092;15.804;2022-07-03T01:20:42;7.93;;;4.90;;
70026;SDS011;57506;50.092;15.804;2022-07-03T01:23:30;9.23;;;5.13;;
70026;SDS011;57506;50.092;15.804;2022-07-03T01:26:08;9.02;;;5.30;;
70026;SDS011;57506;50.092;15.804;2022-07-03T01:28:37;9.30;;;5.30;;
70026;SDS011;57506;50.092;15.804;2022-07-03T01:31:09;9.10;;;5.07;;
70026;SDS011;57506;50.092;15.804;2022-07-03T01:33:38;9.60;;;5.43;;
70026;SDS011;57506;50.092;15.804;2022-07-03T01:36:05;13.45;;;7.20;;
70026;SDS011;57506;50.092;15.804;2022-07-03T01:38:33;12.15;;;6.53;;
70026;SDS011;57506;50.092;15.804;2022-07-03T01:41:02;8.88;;;5.85;;
70026;SDS011;57506;50.092;15.804;2022-07-03T01:43:30;9.85;;;5.57;;
70026;SDS011;57506;50.092;15.804;2022-07-03T01:45:58;7.67;;;4.90;;
70026;SDS011;57506;50.092;15.804;2022-07-03T01:48:25;10.25;;;5.25;;
70026;SDS011;57506;50.092;15.804;2022-07-03T01:50:52;11.18;;;6.00;;
70026;SDS011;57506;50.092;15.804;2022-07-03T01:53:20;8.88;;;5.35;;
70026;SDS011;57506;50.092;15.804;2022-07-03T01:55:50;9.27;;;5.05;;
70026;SDS011;57506;50.092;15.804;2022-07-03T01:58:18;13.83;;;6.93;;
70026;SDS011;57506;50.092;15.804;2022-07-03T02:03:39;12.77;;;6.07;;
70026;SDS011;57506;50.092;15.804;2022-07-03T02:06:23;9.93;;;6.83;;
70026;SDS011;57506;50.092;15.804;2022-07-03T02:09:08;10.80;;;6.28;;
70026;SDS011;57506;50.092;15.804;2022-07-03T02:11:37;10.50;;;5.97;;
70026;SDS011;57506;50.092;15.804;2022-07-03T02:19:41;8.97;;;5.63;;
70026;SDS011;57506;50.092;15.804;2022-07-03T02:22:37;10.40;;;5.25;;
70026;SDS011;57506;50.092;15.804;2022-07-03T02:27:54;6.88;;;4.82;;
70026;SDS011;57506;50.092;15.804;2022-07-03T02:30:22;9.23;;;5.05;;
70026;SDS011;57506;50.092;15.804;2022-07-03T02:32:49;9.10;;;4.80;;
70026;SDS011;57506;50.092;15.804;2022-07-03T02:35:18;10.13;;;4.70;;
70026;SDS011;57506;50.092;15.804;2022-07-03T02:38:04;17.45;;;7.10;;
70026;SDS011;57506;50.092;15.804;2022-07-03T02:40:34;13.82;;;6.28;;
70026;SDS011;57506;50.092;15.804;2022-07-03T02:46:24;11.27;;;4.90;;
70026;SDS011;57506;50.092;15.804;2022-07-03T02:48:48;9.10;;;4.75;;
70026;SDS011;57506;50.092;15.804;2022-07-03T02:51:20;14.10;;;5.60;;
70026;SDS011;57506;50.092;15.804;2022-07-03T02:53:53;9.60;;;5.30;;
70026;SDS011;57506;50.092;15.804;2022-07-03T03:02:25;14.35;;;7.50;;
70026;SDS011;57506;50.092;15.804;2022-07-03T03:05:13;10.95;;;6.50;;
70026;SDS011;57506;50.092;15.804;2022-07-03T03:10:18;14.45;;;6.78;;
70026;SDS011;57506;50.092;15.804;2022-07-03T03:12:46;12.33;;;7.43;;
70026;SDS011;57506;50.092;15.804;2022-07-03T03:15:16;16.35;;;7.63;;
70026;SDS011;57506;50.092;15.804;2022-07-03T03:17:51;10.68;;;8.10;;
70026;SDS011;57506;50.092;15.804;2022-07-03T03:20:22;10.00;;;7.25;;
70026;SDS011;57506;50.092;15.804;2022-07-03T03:23:09;11.20;;;6.82;;
70026;SDS011;57506;50.092;15.804;2022-07-03T03:26:13;9.17;;;5.50;;
70026;SDS011;57506;50.092;15.804;2022-07-03T03:28:50;12.05;;;5.55;;
70026;SDS011;57506;50.092;15.804;2022-07-03T03:31:17;9.77;;;5.47;;
70026;SDS011;57506;50.092;15.804;2022-07-03T03:33:44;9.88;;;5.40;;
70026;SDS011;57506;50.092;15.804;2022-07-03T03:36:12;12.57;;;5.25;;
70026;SDS011;57506;50.092;15.804;2022-07-03T03:38:39;12.73;;;6.30;;
70026;SDS011;57506;50.092;15.804;2022-07-03T03:41:06;10.88;;;6.78;;
70026;SDS011;57506;50.092;15.804;2022-07-03T03:43:32;16.80;;;6.93;;
70026;SDS011;57506;50.092;15.804;2022-07-03T03:45:59;11.70;;;7.32;;
70026;SDS011;57506;50.092;15.804;2022-07-03T03:48:29;18.60;;;8.40;;
70026;SDS011;57506;50.092;15.804;2022-07-03T03:50:58;11.27;;;7.43;;
70026;SDS011;57506;50.092;15.804;2022-07-03T03:53:26;13.73;;;7.38;;
70026;SDS011;57506;50.092;15.804;2022-07-03T03:55:53;17.63;;;7.32;;
70026;SDS011;57506;50.092;15.804;2022-07-03T03:58:31;14.00;;;7.45;;
70026;SDS011;57506;50.092;15.804;2022-07-03T04:00:58;12.20;;;8.70;;
70026;SDS011;57506;50.092;15.804;2022-07-03T04:03:25;14.77;;;10.33;;
70026;SDS011;57506;50.092;15.804;2022-07-03T04:05:52;18.98;;;11.95;;
70026;SDS011;57506;50.092;15.804;2022-07-03T04:08:19;14.35;;;10.75;;
70026;SDS011;57506;50.092;15.804;2022-07-03T04:10:46;15.90;;;10.75;;
70026;SDS011;57506;50.092;15.804;2022-07-03T04:13:12;14.05;;;9.60;;
70026;SDS011;57506;50.092;15.804;2022-07-03T04:15:38;14.47;;;9.13;;
70026;SDS011;57506;50.092;15.804;2022-07-03T04:18:04;14.18;;;8.20;;
70026;SDS011;57506;50.092;15.804;2022-07-03T04:20:29;11.70;;;8.17;;
70026;SDS011;57506;50.092;15.804;2022-07-03T04:22:56;10.75;;;7.68;;
70026;SDS011;57506;50.092;15.804;2022-07-03T04:25:22;12.70;;;7.97;;
70026;SDS011;57506;50.092;15.804;2022-07-03T04:27:48;9.23;;;6.73;;
70026;SDS011;57506;50.092;15.804;2022-07-03T04:30:14;9.70;;;5.95;;
70026;SDS011;57506;50.092;15.804;2022-07-03T04:32:39;10.03;;;6.23;;
70026;SDS011;57506;50.092;15.804;2022-07-03T04:35:05;12.20;;;6.50;;
70026;SDS011;57506;50.092;15.804;2022-07-03T04:37:31;12.13;;;6.53;;
70026;SDS011;57506;50.092;15.804;2022-07-03T04:39:56;10.07;;;6.78;;
70026;SDS011;57506;50.092;15.804;2022-07-03T04:42:22;8.87;;;6.67;;
70026;SDS011;57506;50.092;15.804;2022-07-03T04:44:47;10.87;;;6.20;;
70026;SDS011;57506;50.092;15.804;2022-07-03T04:47:13;10.52;;;6.28;;
70026;SDS011;57506;50.092;15.804;2022-07-03T04:49:40;9.75;;;6.20;;
70026;SDS011;57506;50.092;15.804;2022-07-03T04:52:06;9.33;;;5.70;;
70026;SDS011;57506;50.092;15.804;2022-07-03T04:54:33;8.25;;;5.63;;
70026;SDS011;57506;50.092;15.804;2022-07-03T04:56:58;10.17;;;5.30;;
70026;SDS011;57506;50.092;15.804;2022-07-03T04:59:24;8.65;;;5.22;;
70026;SDS011;57506;50.092;15.804;2022-07-03T05:01:49;8.57;;;4.70;;
70026;SDS011;57506;50.092;15.804;2022-07-03T05:04:15;8.77;;;4.80;;
70026;SDS011;57506;50.092;15.804;2022-07-03T05:06:41;9.35;;;4.85;;
70026;SDS011;57506;50.092;15.804;2022-07-03T05:09:07;7.57;;;4.40;;
70026;SDS011;57506;50.092;15.804;2022-07-03T05:11:33;6.00;;;4.30;;
70026;SDS011;57506;50.092;15.804;2022-07-03T05:13:58;9.40;;;4.15;;
70026;SDS011;57506;50.092;15.804;2022-07-03T05:16:24;6.47;;;3.97;;
70026;SDS011;57506;50.092;15.804;2022-07-03T05:18:49;5.50;;;3.80;;
70026;SDS011;57506;50.092;15.804;2022-07-03T05:21:15;7.38;;;4.45;;
70026;SDS011;57506;50.092;15.804;2022-07-03T05:23:41;8.17;;;4.30;;
70026;SDS011;57506;50.092;15.804;2022-07-03T05:26:06;7.88;;;4.28;;
70026;SDS011;57506;50.092;15.804;2022-07-03T05:28:32;5.37;;;3.83;;
70026;SDS011;57506;50.092;15.804;2022-07-03T05:30:57;9.60;;;4.20;;
70026;SDS011;57506;50.092;15.804;2022-07-03T05:33:23;6.57;;;4.50;;
70026;SDS011;57506;50.092;15.804;2022-07-03T05:35:49;8.10;;;4.60;;
70026;SDS011;57506;50.092;15.804;2022-07-03T05:38:14;5.57;;;3.88;;
70026;SDS011;57506;50.092;15.804;2022-07-03T05:41:00;7.15;;;3.97;;
70026;SDS011;57506;50.092;15.804;2022-07-03T05:43:25;7.33;;;4.13;;
70026;SDS011;57506;50.092;15.804;2022-07-03T05:45:51;8.47;;;4.03;;
70026;SDS011;57506;50.092;15.804;2022-07-03T05:48:17;5.50;;;3.57;;
70026;SDS011;57506;50.092;15.804;2022-07-03T05:50:42;5.57;;;3.70;;
70026;SDS011;57506;50.092;15.804;2022-07-03T05:53:08;7.20;;;3.70;;
70026;SDS011;57506;50.092;15.804;2022-07-03T05:55:33;9.27;;;3.60;;
70026;SDS011;57506;50.092;15.804;2022-07-03T05:57:59;5.20;;;3.80;;
70026;SDS011;57506;50.092;15.804;2022-07-03T06:00:24;5.75;;;3.40;;
70026;SDS011;57506;50.092;15.804;2022-07-03T06:02:50;5.77;;;3.57;;
70026;SDS011;57506;50.092;15.804;2022-07-03T06:05:15;6.33;;;3.30;;
70026;SDS011;57506;50.092;15.804;2022-07-03T06:07:41;6.15;;;3.67;;
70026;SDS011;57506;50.092;15.804;2022-07-03T06:10:06;6.13;;;3.60;;
70026;SDS011;57506;50.092;15.804;2022-07-03T06:12:32;5.93;;;3.30;;
70026;SDS011;57506;50.092;15.804;2022-07-03T06:14:58;6.00;;;3.63;;
70026;SDS011;57506;50.092;15.804;2022-07-03T06:17:23;4.80;;;3.00;;
70026;SDS011;57506;50.092;15.804;2022-07-03T06:19:49;5.28;;;2.83;;
70026;SDS011;57506;50.092;15.804;2022-07-03T06:22:14;7.30;;;3.17;;
70026;SDS011;57506;50.092;15.804;2022-07-03T06:24:40;8.02;;;3.22;;
70026;SDS011;57506;50.092;15.804;2022-07-03T06:27:05;5.53;;;2.93;;
70026;SDS011;57506;50.092;15.804;2022-07-03T06:29:31;5.70;;;2.90;;
70026;SDS011;57506;50.092;15.804;2022-07-03T06:31:56;4.70;;;2.90;;
70026;SDS011;57506;50.092;15.804;2022-07-03T06:34:22;7.13;;;3.40;;
70026;SDS011;57506;50.092;15.804;2022-07-03T06:36:48;9.97;;;3.50;;
70026;SDS011;57506;50.092;15.804;2022-07-03T06:39:13;6.10;;;3.00;;
70026;SDS011;57506;50.092;15.804;2022-07-03T06:41:39;6.27;;;3.27;;
70026;SDS011;57506;50.092;15.804;2022-07-03T06:44:04;5.95;;;3.15;;
70026;SDS011;57506;50.092;15.804;2022-07-03T06:46:30;9.93;;;2.93;;
70026;SDS011;57506;50.092;15.804;2022-07-03T06:48:56;7.20;;;2.90;;
70026;SDS011;57506;50.092;15.804;2022-07-03T06:51:21;5.78;;;3.08;;
70026;SDS011;57506;50.092;15.804;2022-07-03T06:53:47;5.73;;;3.47;;
70026;SDS011;57506;50.092;15.804;2022-07-03T06:56:12;4.80;;;2.80;;
70026;SDS011;57506;50.092;15.804;2022-07-03T06:58:38;5.63;;;2.57;;
70026;SDS011;57506;50.092;15.804;2022-07-03T07:01:04;5.25;;;2.67;;
70026;SDS011;57506;50.092;15.804;2022-07-03T07:03:29;4.73;;;2.60;;
70026;SDS011;57506;50.092;15.804;2022-07-03T07:05:55;5.97;;;2.20;;
70026;SDS011;57506;50.092;15.804;2022-07-03T07:08:20;6.28;;;2.50;;
70026;SDS011;57506;50.092;15.804;2022-07-03T07:10:46;6.90;;;2.90;;
70026;SDS011;57506;50.092;15.804;2022-07-03T07:13:12;5.82;;;2.72;;
70026;SDS011;57506;50.092;15.804;2022-07-03T07:15:38;5.78;;;2.80;;
70026;SDS011;57506;50.092;15.804;2022-07-03T07:18:04;5.13;;;2.70;;
70026;SDS011;57506;50.092;15.804;2022-07-03T07:20:29;5.03;;;2.50;;
70026;SDS011;57506;50.092;15.804;2022-07-03T07:22:55;6.33;;;2.70;;
70026;SDS011;57506;50.092;15.804;2022-07-03T07:25:20;4.57;;;2.50;;
70026;SDS011;57506;50.092;15.804;2022-07-03T07:27:46;4.35;;;2.35;;
70026;SDS011;57506;50.092;15.804;2022-07-03T07:30:13;5.35;;;2.35;;
70026;SDS011;57506;50.092;15.804;2022-07-03T07:32:39;4.53;;;2.10;;
70026;SDS011;57506;50.092;15.804;2022-07-03T07:35:04;5.65;;;2.80;;
70026;SDS011;57506;50.092;15.804;2022-07-03T07:37:30;7.95;;;2.88;;
70026;SDS011;57506;50.092;15.804;2022-07-03T07:39:56;4.83;;;2.40;;
70026;SDS011;57506;50.092;15.804;2022-07-03T07:42:21;4.90;;;2.50;;
70026;SDS011;57506;50.092;15.804;2022-07-03T07:44:49;7.10;;;2.70;;
70026;SDS011;57506;50.092;15.804;2022-07-03T07:47:15;4.63;;;2.50;;
70026;SDS011;57506;50.092;15.804;2022-07-03T07:49:40;7.00;;;2.70;;
70026;SDS011;57506;50.092;15.804;2022-07-03T07:52:06;4.65;;;2.20;;
70026;SDS011;57506;50.092;15.804;2022-07-03T07:54:32;5.00;;;2.30;;
70026;SDS011;57506;50.092;15.804;2022-07-03T07:56:58;4.97;;;1.97;;
70026;SDS011;57506;50.092;15.804;2022-07-03T07:59:23;4.40;;;1.97;;
70026;SDS011;57506;50.092;15.804;2022-07-03T08:01:49;7.05;;;1.75;;
70026;SDS011;57506;50.092;15.804;2022-07-03T08:04:33;6.87;;;1.60;;
70026;SDS011;57506;50.092;15.804;2022-07-03T08:07:17;4.85;;;1.38;;
70026;SDS011;57506;50.092;15.804;2022-07-03T08:09:42;3.92;;;1.83;;
70026;SDS011;57506;50.092;15.804;2022-07-03T08:12:08;4.60;;;1.70;;
70026;SDS011;57506;50.092;15.804;2022-07-03T08:14:34;3.40;;;1.60;;
70026;SDS011;57506;50.092;15.804;2022-07-03T08:16:59;5.90;;;2.30;;
70026;SDS011;57506;50.092;15.804;2022-07-03T08:19:25;5.83;;;1.83;;
70026;SDS011;57506;50.092;15.804;2022-07-03T08:21:50;5.07;;;1.80;;
70026;SDS011;57506;50.092;15.804;2022-07-03T08:24:16;4.60;;;1.83;;
70026;SDS011;57506;50.092;15.804;2022-07-03T08:26:42;3.40;;;1.40;;
70026;SDS011;57506;50.092;15.804;2022-07-03T08:29:07;3.83;;;1.70;;
70026;SDS011;57506;50.092;15.804;2022-07-03T08:31:33;4.10;;;1.50;;
70026;SDS011;57506;50.092;15.804;2022-07-03T08:33:59;3.63;;;1.67;;
70026;SDS011;57506;50.092;15.804;2022-07-03T08:36:24;4.13;;;1.60;;
70026;SDS011;57506;50.092;15.804;2022-07-03T08:38:50;4.80;;;1.57;;
70026;SDS011;57506;50.092;15.804;2022-07-03T08:41:15;5.10;;;1.60;;
70026;SDS011;57506;50.092;15.804;2022-07-03T08:43:41;3.53;;;1.50;;
70026;SDS011;57506;50.092;15.804;2022-07-03T08:46:09;4.25;;;1.45;;
70026;SDS011;57506;50.092;15.804;2022-07-03T08:48:36;4.13;;;1.63;;
70026;SDS011;57506;50.092;15.804;2022-07-03T08:51:02;11.63;;;1.63;;
70026;SDS011;57506;50.092;15.804;2022-07-03T08:53:28;4.28;;;1.77;;
70026;SDS011;57506;50.092;15.804;2022-07-03T08:55:55;3.92;;;1.67;;
70026;SDS011;57506;50.092;15.804;2022-07-03T08:58:24;3.67;;;1.58;;
70026;SDS011;57506;50.092;15.804;2022-07-03T09:00:54;4.47;;;1.88;;
70026;SDS011;57506;50.092;15.804;2022-07-03T09:03:20;4.53;;;1.70;;
70026;SDS011;57506;50.092;15.804;2022-07-03T09:05:49;3.67;;;1.80;;
70026;SDS011;57506;50.092;15.804;2022-07-03T09:08:16;5.35;;;1.80;;
70026;SDS011;57506;50.092;15.804;2022-07-03T09:10:44;4.38;;;1.83;;
70026;SDS011;57506;50.092;15.804;2022-07-03T09:13:10;6.97;;;1.70;;
70026;SDS011;57506;50.092;15.804;2022-07-03T09:15:36;3.88;;;1.70;;
70026;SDS011;57506;50.092;15.804;2022-07-03T09:18:06;5.85;;;2.05;;
70026;SDS011;57506;50.092;15.804;2022-07-03T09:20:33;4.40;;;1.98;;
70026;SDS011;57506;50.092;15.804;2022-07-03T09:26:03;6.18;;;2.25;;
70026;SDS011;57506;50.092;15.804;2022-07-03T09:28:42;5.20;;;2.30;;
70026;SDS011;57506;50.092;15.804;2022-07-03T09:31:12;5.95;;;2.30;;
70026;SDS011;57506;50.092;15.804;2022-07-03T09:36:20;4.60;;;1.90;;
70026;SDS011;57506;50.092;15.804;2022-07-03T09:42:01;3.88;;;1.85;;
70026;SDS011;57506;50.092;15.804;2022-07-03T09:44:40;4.95;;;2.00;;
70026;SDS011;57506;50.092;15.804;2022-07-03T09:49:58;6.43;;;2.17;;
70026;SDS011;57506;50.092;15.804;2022-07-03T09:52:34;3.42;;;2.00;;
70026;SDS011;57506;50.092;15.804;2022-07-03T09:57:35;4.10;;;1.97;;
70026;SDS011;57506;50.092;15.804;2022-07-03T10:00:19;4.88;;;2.17;;
70026;SDS011;57506;50.092;15.804;2022-07-03T10:07:51;4.00;;;1.80;;
70026;SDS011;57506;50.092;15.804;2022-07-03T10:10:22;3.88;;;1.90;;
70026;SDS011;57506;50.092;15.804;2022-07-03T10:12:49;4.20;;;1.58;;
70026;SDS011;57506;50.092;15.804;2022-07-03T10:15:16;5.57;;;2.10;;
70026;SDS011;57506;50.092;15.804;2022-07-03T10:17:43;5.82;;;1.98;;
70026;SDS011;57506;50.092;15.804;2022-07-03T10:20:13;5.78;;;1.90;;
70026;SDS011;57506;50.092;15.804;2022-07-03T10:22:41;4.15;;;1.80;;
70026;SDS011;57506;50.092;15.804;2022-07-03T10:25:10;4.15;;;1.83;;
70026;SDS011;57506;50.092;15.804;2022-07-03T10:27:36;5.77;;;1.73;;
70026;SDS011;57506;50.092;15.804;2022-07-03T10:30:03;3.92;;;1.70;;
70026;SDS011;57506;50.092;15.804;2022-07-03T10:32:29;3.53;;;1.70;;
70026;SDS011;57506;50.092;15.804;2022-07-03T10:34:59;6.80;;;2.15;;
70026;SDS011;57506;50.092;15.804;2022-07-03T10:37:28;4.45;;;1.73;;
70026;SDS011;57506;50.092;15.804;2022-07-03T10:40:07;3.60;;;1.80;;
70026;SDS011;57506;50.092;15.804;2022-07-03T10:43:00;4.65;;;1.85;;
70026;SDS011;57506;50.092;15.804;2022-07-03T10:46:07;3.47;;;1.83;;
70026;SDS011;57506;50.092;15.804;2022-07-03T10:48:50;3.80;;;1.92;;
70026;SDS011;57506;50.092;15.804;2022-07-03T10:51:17;3.30;;;1.70;;
70026;SDS011;57506;50.092;15.804;2022-07-03T10:53:42;5.93;;;1.63;;
70026;SDS011;57506;50.092;15.804;2022-07-03T10:56:08;3.63;;;1.60;;
70026;SDS011;57506;50.092;15.804;2022-07-03T10:58:53;3.38;;;1.73;;
70026;SDS011;57506;50.092;15.804;2022-07-03T11:01:27;5.28;;;1.77;;
70026;SDS011;57506;50.092;15.804;2022-07-03T11:03:54;3.30;;;1.50;;
70026;SDS011;57506;50.092;15.804;2022-07-03T11:09:22;3.75;;;1.70;;
70026;SDS011;57506;50.092;15.804;2022-07-03T11:11:48;4.20;;;1.90;;
70026;SDS011;57506;50.092;15.804;2022-07-03T11:16:48;4.20;;;2.13;;
70026;SDS011;57506;50.092;15.804;2022-07-03T11:19:14;4.63;;;2.00;;
70026;SDS011;57506;50.092;15.804;2022-07-03T11:21:50;3.83;;;2.10;;
70026;SDS011;57506;50.092;15.804;2022-07-03T11:27:17;5.30;;;2.15;;
70026;SDS011;57506;50.092;15.804;2022-07-03T11:29:48;3.88;;;1.95;;
70026;SDS011;57506;50.092;15.804;2022-07-03T11:38:07;5.20;;;1.60;;
70026;SDS011;57506;50.092;15.804;2022-07-03T11:40:33;3.67;;;1.80;;
70026;SDS011;57506;50.092;15.804;2022-07-03T11:43:01;3.20;;;1.80;;
70026;SDS011;57506;50.092;15.804;2022-07-03T11:45:30;4.80;;;1.85;;
70026;SDS011;57506;50.092;15.804;2022-07-03T11:47:56;3.97;;;2.23;;
70026;SDS011;57506;50.092;15.804;2022-07-03T11:50:35;5.10;;;1.70;;
70026;SDS011;57506;50.092;15.804;2022-07-03T11:58:16;4.00;;;1.98;;
70026;SDS011;57506;50.092;15.804;2022-07-03T12:00:42;4.85;;;1.80;;
70026;SDS011;57506;50.092;15.804;2022-07-03T12:03:07;3.93;;;2.07;;
70026;SDS011;57506;50.092;15.804;2022-07-03T12:05:33;4.07;;;2.00;;
70026;SDS011;57506;50.092;15.804;2022-07-03T12:08:05;3.80;;;1.63;;
70026;SDS011;57506;50.092;15.804;2022-07-03T12:10:39;3.70;;;1.85;;
70026;SDS011;57506;50.092;15.804;2022-07-03T12:13:19;3.53;;;1.80;;
70026;SDS011;57506;50.092;15.804;2022-07-03T12:15:45;4.72;;;1.92;;
70026;SDS011;57506;50.092;15.804;2022-07-03T12:18:12;3.63;;;1.77;;
70026;SDS011;57506;50.092;15.804;2022-07-03T12:20:37;6.43;;;1.77;;
70026;SDS011;57506;50.092;15.804;2022-07-03T12:23:03;4.70;;;1.97;;
70026;SDS011;57506;50.092;15.804;2022-07-03T12:25:29;3.97;;;1.70;;
70026;SDS011;57506;50.092;15.804;2022-07-03T12:27:55;4.50;;;2.00;;
70026;SDS011;57506;50.092;15.804;2022-07-03T12:30:22;5.77;;;1.73;;
70026;SDS011;57506;50.092;15.804;2022-07-03T12:32:52;3.88;;;1.80;;
70026;SDS011;57506;50.092;15.804;2022-07-03T12:35:22;3.90;;;2.10;;
70026;SDS011;57506;50.092;15.804;2022-07-03T12:37:49;4.18;;;1.80;;
70026;SDS011;57506;50.092;15.804;2022-07-03T12:40:15;3.63;;;1.83;;
70026;SDS011;57506;50.092;15.804;2022-07-03T12:43:02;4.82;;;2.00;;
70026;SDS011;57506;50.092;15.804;2022-07-03T12:45:27;4.80;;;2.08;;
70026;SDS011;57506;50.092;15.804;2022-07-03T12:48:06;4.07;;;2.15;;
70026;SDS011;57506;50.092;15.804;2022-07-03T12:50:47;4.20;;;2.20;;
70026;SDS011;57506;50.092;15.804;2022-07-03T12:53:29;3.63;;;2.13;;
70026;SDS011;57506;50.092;15.804;2022-07-03T12:56:03;4.00;;;2.17;;
70026;SDS011;57506;50.092;15.804;2022-07-03T12:58:30;6.53;;;2.30;;
70026;SDS011;57506;50.092;15.804;2022-07-03T13:03:53;4.00;;;1.80;;
70026;SDS011;57506;50.092;15.804;2022-07-03T13:06:22;4.35;;;2.30;;
70026;SDS011;57506;50.092;15.804;2022-07-03T13:08:49;4.97;;;2.00;;
70026;SDS011;57506;50.092;15.804;2022-07-03T13:11:29;4.38;;;2.30;;
70026;SDS011;57506;50.092;15.804;2022-07-03T13:14:03;4.63;;;2.20;;
70026;SDS011;57506;50.092;15.804;2022-07-03T13:16:47;4.87;;;2.40;;
70026;SDS011;57506;50.092;15.804;2022-07-03T13:19:17;4.38;;;2.50;;
70026;SDS011;57506;50.092;15.804;2022-07-03T13:21:53;6.80;;;2.40;;
70026;SDS011;57506;50.092;15.804;2022-07-03T13:24:21;4.47;;;2.53;;
70026;SDS011;57506;50.092;15.804;2022-07-03T13:26:47;5.15;;;2.40;;
70026;SDS011;57506;50.092;15.804;2022-07-03T13:29:14;7.20;;;2.50;;
70026;SDS011;57506;50.092;15.804;2022-07-03T13:31:40;4.28;;;2.25;;
70026;SDS011;57506;50.092;15.804;2022-07-03T13:34:06;4.47;;;2.10;;
70026;SDS011;57506;50.092;15.804;2022-07-03T13:36:32;7.53;;;2.30;;
70026;SDS011;57506;50.092;15.804;2022-07-03T13:38:58;7.88;;;2.28;;
70026;SDS011;57506;50.092;15.804;2022-07-03T13:41:24;4.45;;;2.25;;
70026;SDS011;57506;50.092;15.804;2022-07-03T13:43:51;9.27;;;2.40;;
70026;SDS011;57506;50.092;15.804;2022-07-03T13:46:17;4.07;;;2.37;;
70026;SDS011;57506;50.092;15.804;2022-07-03T13:48:46;4.15;;;2.22;;
70026;SDS011;57506;50.092;15.804;2022-07-03T13:51:12;5.75;;;2.13;;
70026;SDS011;57506;50.092;15.804;2022-07-03T13:53:38;8.13;;;2.10;;
70026;SDS011;57506;50.092;15.804;2022-07-03T13:56:04;4.37;;;2.20;;
70026;SDS011;57506;50.092;15.804;2022-07-03T13:58:30;5.03;;;2.35;;
70026;SDS011;57506;50.092;15.804;2022-07-03T14:00:55;4.47;;;2.20;;
70026;SDS011;57506;50.092;15.804;2022-07-03T14:03:21;6.15;;;2.33;;
70026;SDS011;57506;50.092;15.804;2022-07-03T14:05:47;5.13;;;2.57;;
70026;SDS011;57506;50.092;15.804;2022-07-03T14:08:16;5.25;;;2.38;;
70026;SDS011;57506;50.092;15.804;2022-07-03T14:10:45;4.35;;;2.30;;
70026;SDS011;57506;50.092;15.804;2022-07-03T14:13:12;4.60;;;2.25;;
70026;SDS011;57506;50.092;15.804;2022-07-03T14:15:38;5.25;;;2.47;;
70026;SDS011;57506;50.092;15.804;2022-07-03T14:18:04;3.87;;;1.93;;
70026;SDS011;57506;50.092;15.804;2022-07-03T14:20:29;6.15;;;2.03;;
70026;SDS011;57506;50.092;15.804;2022-07-03T14:22:55;5.37;;;2.20;;
70026;SDS011;57506;50.092;15.804;2022-07-03T14:25:21;4.00;;;1.83;;
70026;SDS011;57506;50.092;15.804;2022-07-03T14:27:46;4.37;;;2.07;;
70026;SDS011;57506;50.092;15.804;2022-07-03T14:30:31;3.90;;;2.20;;
70026;SDS011;57506;50.092;15.804;2022-07-03T14:33:15;4.97;;;1.90;;
70026;SDS011;57506;50.092;15.804;2022-07-03T14:35:41;6.77;;;2.20;;
70026;SDS011;57506;50.092;15.804;2022-07-03T14:38:06;4.53;;;1.83;;
70026;SDS011;57506;50.092;15.804;2022-07-03T14:40:32;8.63;;;2.07;;
70026;SDS011;57506;50.092;15.804;2022-07-03T14:42:57;4.35;;;1.95;;
70026;SDS011;57506;50.092;15.804;2022-07-03T14:45:23;4.73;;;2.13;;
70026;SDS011;57506;50.092;15.804;2022-07-03T14:47:49;4.20;;;2.33;;
70026;SDS011;57506;50.092;15.804;2022-07-03T14:50:15;3.87;;;2.30;;
70026;SDS011;57506;50.092;15.804;2022-07-03T14:52:41;3.75;;;2.30;;
70026;SDS011;57506;50.092;15.804;2022-07-03T14:55:07;3.40;;;2.20;;
70026;SDS011;57506;50.092;15.804;2022-07-03T15:00:27;5.80;;;2.70;;
70026;SDS011;57506;50.092;15.804;2022-07-03T15:05:39;3.55;;;1.77;;
70026;SDS011;57506;50.092;15.804;2022-07-03T15:10:45;5.32;;;2.65;;
70026;SDS011;57506;50.092;15.804;2022-07-03T15:13:11;4.50;;;2.30;;
70026;SDS011;57506;50.092;15.804;2022-07-03T15:15:39;5.30;;;2.30;;
70026;SDS011;57506;50.092;15.804;2022-07-03T15:18:07;4.18;;;2.08;;
70026;SDS011;57506;50.092;15.804;2022-07-03T15:20:34;4.10;;;2.30;;
70026;SDS011;57506;50.092;15.804;2022-07-03T15:23:01;4.88;;;2.55;;
70026;SDS011;57506;50.092;15.804;2022-07-03T15:25:30;3.53;;;1.97;;
70026;SDS011;57506;50.092;15.804;2022-07-03T15:27:56;4.13;;;2.05;;
70026;SDS011;57506;50.092;15.804;2022-07-03T15:30:23;4.72;;;2.15;;
70026;SDS011;57506;50.092;15.804;2022-07-03T15:32:50;4.10;;;2.22;;
70026;SDS011;57506;50.092;15.804;2022-07-03T15:35:17;3.50;;;2.17;;
70026;SDS011;57506;50.092;15.804;2022-07-03T15:40:23;3.58;;;1.60;;
70026;SDS011;57506;50.092;15.804;2022-07-03T15:43:03;4.28;;;2.20;;
70026;SDS011;57506;50.092;15.804;2022-07-03T15:53:58;4.22;;;2.00;;
70026;SDS011;57506;50.092;15.804;2022-07-03T15:56:28;3.88;;;1.70;;
70026;SDS011;57506;50.092;15.804;2022-07-03T15:58:59;5.53;;;2.10;;
70026;SDS011;57506;50.092;15.804;2022-07-03T16:01:28;4.15;;;2.20;;
70026;SDS011;57506;50.092;15.804;2022-07-03T16:07:25;3.00;;;1.60;;
70026;SDS011;57506;50.092;15.804;2022-07-03T16:09:52;4.70;;;2.42;;
70026;SDS011;57506;50.092;15.804;2022-07-03T16:12:18;4.10;;;2.20;;
70026;SDS011;57506;50.092;15.804;2022-07-03T16:14:50;5.05;;;1.98;;
70026;SDS011;57506;50.092;15.804;2022-07-03T16:17:16;4.93;;;2.15;;
70026;SDS011;57506;50.092;15.804;2022-07-03T16:19:47;6.43;;;2.20;;
70026;SDS011;57506;50.092;15.804;2022-07-03T16:22:15;3.30;;;2.08;;